Time;durP1;ratioP1;P1;durP2;ratioP2;P2;SDS_P1;SDS_P2;PMS_P1;PMS_P2;Temp;Humidity;BMP_temperature;BMP_pressure;BME280_temperature;BME280_humidity;BME280_pressure;Samples;Min_cycle;Max_cycle;Signal;HPM_P1;HPM_P2
2022/09/21 00:01:20;;;;;;;5.57;2.80;;;8.00;99.90;;;;;;5073121;28;20043;-57
2022/09/21 00:03:46;;;;;;;7.88;2.47;;;7.70;99.90;;;;;;5073255;28;20102;-57
2022/09/21 00:06:15;;;;;;;6.40;2.70;;;7.80;99.90;;;;;;5073298;28;20079;-57
2022/09/21 00:08:42;;;;;;;6.95;3.05;;;7.40;99.90;;;;;;5073038;28;20036;-57
2022/09/21 00:11:15;;;;;;;8.80;3.15;;;8.00;99.90;;;;;;5072686;28;20489;-57
2022/09/21 00:13:42;;;;;;;10.80;3.22;;;;;;;;;;5072753;28;20506;-57
2022/09/21 00:16:10;;;;;;;7.15;3.03;;;7.80;99.90;;;;;;5072854;28;20106;-57
2022/09/21 00:18:37;;;;;;;9.10;3.60;;;8.40;99.90;;;;;;5072856;28;20036;-58
2022/09/21 00:21:11;;;;;;;8.18;3.05;;;7.70;99.90;;;;;;5073049;28;20040;-58
2022/09/21 00:23:39;;;;;;;5.13;3.10;;;7.80;99.90;;;;;;5073078;28;20094;-57
2022/09/21 00:26:17;;;;;;;7.75;3.60;;;7.30;99.90;;;;;;5072985;28;20029;-57
2022/09/21 00:28:44;;;;;;;6.75;3.50;;;7.40;99.90;;;;;;5072992;28;20040;-57
2022/09/21 00:31:12;;;;;;;8.20;3.30;;;7.60;99.90;;;;;;5072787;28;20068;-56
2022/09/21 00:33:40;;;;;;;6.03;3.22;;;7.50;99.90;;;;;;5073174;28;20036;-56
2022/09/21 00:36:08;;;;;;;7.25;3.38;;;7.60;99.90;;;;;;5072786;28;20041;-56
2022/09/21 00:38:35;;;;;;;8.05;3.08;;;;;;;;;;5072814;28;20071;-56
2022/09/21 00:41:01;;;;;;;7.28;3.38;;;7.50;99.90;;;;;;5072680;28;20502;-56
2022/09/21 00:43:37;;;;;;;6.25;3.15;;;7.40;99.90;;;;;;5073147;28;20048;-56
2022/09/21 00:46:30;;;;;;;5.70;2.95;;;7.40;99.90;;;;;;5076959;28;20040;-56
2022/09/21 00:48:57;;;;;;;6.32;3.13;;;7.40;99.90;;;;;;5076198;28;20524;-56
2022/09/21 00:51:25;;;;;;;7.95;3.45;;;7.40;99.90;;;;;;5076615;28;20053;-61
2022/09/21 00:53:59;;;;;;;8.38;3.15;;;7.50;99.90;;;;;;5076474;28;20043;-62
2022/09/21 00:56:25;;;;;;;7.70;3.10;;;7.20;99.90;;;;;;5077062;28;20386;-60
2022/09/21 00:58:54;;;;;;;6.47;2.90;;;7.40;99.90;;;;;;5075968;28;20052;-62
2022/09/21 01:01:20;;;;;;;10.23;3.00;;;;;;;;;;5076344;28;20037;-61
2022/09/21 01:03:49;;;;;;;8.35;2.95;;;7.30;99.90;;;;;;5076336;28;20113;-61
2022/09/21 01:06:19;;;;;;;7.10;2.92;;;7.60;99.90;;;;;;5075127;28;20093;-62
2022/09/21 01:08:51;;;;;;;6.68;2.75;;;7.40;99.90;;;;;;5076244;28;20133;-62
2022/09/21 01:11:35;;;;;;;7.38;2.70;;;7.40;99.90;;;;;;5076012;28;20044;-62
2022/09/21 01:14:16;;;;;;;4.22;2.40;;;7.70;99.90;;;;;;5074578;28;20104;-57
2022/09/21 01:17:01;;;;;;;4.35;2.20;;;7.20;99.90;;;;;;5076235;28;20055;-57
2022/09/21 01:19:48;;;;;;;4.85;2.50;;;7.40;99.90;;;;;;5075871;28;20545;-57
2022/09/21 01:22:25;;;;;;;7.68;2.60;;;7.10;99.90;;;;;;5075932;28;20041;-58
2022/09/21 01:25:25;;;;;;;6.90;2.90;;;7.00;99.90;;;;;;5075897;28;20399;-58
2022/09/21 01:28:15;;;;;;;5.57;2.80;;;7.70;99.90;;;;;;5053510;28;20580;-58
2022/09/21 01:30:44;;;;;;;4.35;2.55;;;8.00;99.90;;;;;;5053621;28;20393;-58
2022/09/21 01:33:24;;;;;;;6.70;2.92;;;7.10;99.90;;;;;;5053566;28;20127;-58
2022/09/21 01:36:00;;;;;;;5.50;2.70;;;6.80;99.90;;;;;;5053551;28;20045;-58
2022/09/21 01:38:51;;;;;;;5.93;2.70;;;7.10;99.90;;;;;;5052155;28;20060;-58
2022/09/21 01:41:21;;;;;;;3.80;2.50;;;6.80;99.90;;;;;;5053526;28;20203;-57
2022/09/21 01:43:51;;;;;;;10.75;3.00;;;7.00;99.90;;;;;;5053483;28;20532;-57
2022/09/21 01:46:22;;;;;;;7.57;3.17;;;6.90;99.90;;;;;;5036642;28;20049;-57
2022/09/21 01:48:53;;;;;;;5.70;3.30;;;6.90;99.90;;;;;;5053260;28;20040;-57
2022/09/21 01:51:25;;;;;;;10.75;3.10;;;7.30;99.90;;;;;;5053188;28;20521;-58
2022/09/21 01:54:11;;;;;;;7.32;3.22;;;6.90;99.90;;;;;;5036723;28;20045;-56
2022/09/21 01:56:45;;;;;;;8.43;3.22;;;6.80;99.90;;;;;;5052470;28;20045;-58
2022/09/21 01:59:17;;;;;;;8.07;3.22;;;7.10;99.90;;;;;;5053103;28;20045;-58
2022/09/21 02:01:50;;;;;;;7.22;3.10;;;6.50;99.90;;;;;;5052916;28;20079;-58
2022/09/21 02:04:15;;;;;;;7.35;3.10;;;7.20;99.90;;;;;;5057969;28;20094;-58
2022/09/21 02:06:45;;;;;;;4.68;3.08;;;6.70;99.90;;;;;;5074103;28;20431;-58
2022/09/21 02:09:11;;;;;;;5.38;3.08;;;5.80;99.90;;;;;;5075342;28;20044;-58
2022/09/21 02:11:41;;;;;;;8.57;3.50;;;6.90;99.90;;;;;;5074004;28;20101;-58
2022/09/21 02:14:12;;;;;;;6.97;3.00;;;7.20;99.90;;;;;;5075013;28;20102;-58
2022/09/21 02:17:06;;;;;;;7.53;3.33;;;6.60;99.90;;;;;;5075189;28;20043;-58
2022/09/21 02:19:34;;;;;;;5.68;3.40;;;6.50;99.90;;;;;;5074901;28;20048;-58
2022/09/21 02:22:16;;;;;;;7.43;3.58;;;6.50;99.90;;;;;;5074721;28;20067;-58
2022/09/21 02:24:49;;;;;;;6.88;3.35;;;6.50;99.90;;;;;;5075195;28;20448;-58
2022/09/21 02:27:40;;;;;;;5.90;3.40;;;6.20;99.90;;;;;;5074783;28;20044;-58
2022/09/21 02:30:17;;;;;;;5.70;3.47;;;6.90;99.90;;;;;;5074976;28;20107;-58
2022/09/21 02:33:08;;;;;;;6.97;3.50;;;6.70;99.90;;;;;;5074894;28;20037;-58
2022/09/21 02:35:56;;;;;;;5.22;3.47;;;6.40;99.90;;;;;;5074735;28;20040;-57
2022/09/21 02:38:45;;;;;;;5.32;2.95;;;6.70;99.90;;;;;;5074526;28;20032;-58
2022/09/21 02:41:30;;;;;;;9.32;3.00;;;6.50;99.90;;;;;;5074258;28;20167;-58
2022/09/21 02:44:06;;;;;;;5.03;3.10;;;5.90;99.90;;;;;;5073067;28;20047;-58
2022/09/21 02:46:41;;;;;;;6.38;3.45;;;6.50;99.90;;;;;;5074643;28;20143;-57
2022/09/21 02:49:12;;;;;;;8.98;3.70;;;6.20;99.90;;;;;;5074294;28;20037;-59
2022/09/21 02:51:51;;;;;;;7.35;3.55;;;6.10;99.90;;;;;;5074531;28;20125;-58
2022/09/21 02:54:24;;;;;;;5.68;3.35;;;6.00;99.90;;;;;;5074375;28;20036;-56
2022/09/21 02:56:52;;;;;;;5.47;3.60;;;6.80;99.90;;;;;;5074267;28;20036;-56
2022/09/21 02:59:20;;;;;;;4.75;3.50;;;6.20;99.90;;;;;;5074227;28;20056;-58
2022/09/21 03:01:46;;;;;;;8.65;3.50;;;;;;;;;;5073565;28;20049;-56
2022/09/21 03:04:13;;;;;;;9.27;4.22;;;6.30;99.90;;;;;;5073885;28;20433;-56
2022/09/21 03:06:40;;;;;;;9.25;4.30;;;;;;;;;;5071872;28;20496;-56
2022/09/21 03:09:06;;;;;;;6.95;3.38;;;;;;;;;;5074033;28;20044;-56
2022/09/21 03:11:32;;;;;;;8.32;3.80;;;6.00;99.90;;;;;;5073824;28;20094;-56
2022/09/21 03:13:59;;;;;;;7.13;3.58;;;5.90;99.90;;;;;;5073521;28;20049;-57
2022/09/21 03:16:28;;;;;;;6.85;3.22;;;;;;;;;;5074004;28;20526;-59
2022/09/21 03:18:54;;;;;;;12.23;4.18;;;;;;;;;;5073546;28;20473;-56
2022/09/21 03:21:20;;;;;;;7.10;3.80;;;6.20;99.90;;;;;;5073341;28;20124;-56
2022/09/21 03:23:48;;;;;;;8.20;3.95;;;5.60;99.90;;;;;;5073415;28;20040;-56
2022/09/21 03:26:14;;;;;;;4.97;3.17;;;;;;;;;;5073649;28;20037;-56
2022/09/21 03:28:40;;;;;;;9.57;3.90;;;;;;;;;;5073450;28;20047;-57
2022/09/21 03:31:06;;;;;;;6.13;3.20;;;;;;;;;;5073282;28;20048;-57
2022/09/21 03:33:32;;;;;;;12.88;3.67;;;5.70;99.90;;;;;;5073442;28;20036;-61
2022/09/21 03:35:58;;;;;;;6.55;3.30;;;5.90;99.90;;;;;;5072611;28;20039;-62
2022/09/21 03:38:25;;;;;;;8.05;3.50;;;5.80;99.90;;;;;;5071670;28;20037;-65
2022/09/21 03:40:53;;;;;;;8.13;3.30;;;;;;;;;;5071823;28;20036;-61
2022/09/21 03:43:20;;;;;;;6.65;3.20;;;5.70;99.90;;;;;;5071872;28;20048;-61
2022/09/21 03:45:47;;;;;;;4.97;3.30;;;5.80;99.90;;;;;;5070360;28;20396;-61
2022/09/21 03:48:14;;;;;;;4.97;3.15;;;;;;;;;;5071780;28;20085;-61
2022/09/21 03:50:40;;;;;;;8.75;3.72;;;;;;;;;;5071613;28;20710;-61
2022/09/21 03:53:09;;;;;;;5.70;3.20;;;5.70;99.90;;;;;;5073309;28;20177;-61
2022/09/21 03:55:35;;;;;;;6.80;4.10;;;5.80;99.90;;;;;;5071827;28;20105;-61
2022/09/21 03:58:01;;;;;;;9.18;3.90;;;5.80;99.90;;;;;;5073001;28;20056;-60
2022/09/21 04:00:27;;;;;;;5.07;3.60;;;5.80;99.90;;;;;;5073369;28;20447;-61
2022/09/21 04:02:53;;;;;;;6.60;3.70;;;5.80;99.90;;;;;;5073092;28;20044;-61
2022/09/21 04:05:19;;;;;;;8.50;3.70;;;6.50;99.90;;;;;;5073341;28;20047;-60
2022/09/21 04:07:46;;;;;;;6.22;3.65;;;5.60;99.90;;;;;;5071925;28;20106;-60
2022/09/21 04:10:16;;;;;;;6.00;3.30;;;5.70;99.90;;;;;;5073316;28;20480;-56
2022/09/21 04:12:43;;;;;;;6.28;3.70;;;5.00;99.90;;;;;;5072695;28;20048;-57
2022/09/21 04:15:18;;;;;;;5.45;3.50;;;5.60;99.90;;;;;;5073275;28;20048;-56
2022/09/21 04:17:49;;;;;;;7.85;3.45;;;4.90;99.90;;;;;;5071894;28;20052;-57
2022/09/21 04:20:15;;;;;;;15.05;3.47;;;6.00;99.90;;;;;;5077219;28;20044;-62
2022/09/21 04:22:44;;;;;;;8.95;3.35;;;5.40;99.90;;;;;;5077364;28;20040;-61
2022/09/21 04:25:11;;;;;;;7.53;3.58;;;5.50;99.90;;;;;;5077135;28;20059;-61
2022/09/21 04:27:37;;;;;;;10.63;3.80;;;5.80;99.90;;;;;;5076874;28;20488;-61
2022/09/21 04:30:04;;;;;;;7.78;3.50;;;5.50;99.90;;;;;;5076874;28;20040;-62
2022/09/21 04:32:30;;;;;;;9.88;4.00;;;;;;;;;;5076958;28;20040;-57
2022/09/21 04:34:55;;;;;;;6.05;3.70;;;5.30;99.90;;;;;;5075405;28;20142;-56
2022/09/21 04:37:21;;;;;;;7.75;4.25;;;5.50;99.90;;;;;;5076636;28;20068;-57
2022/09/21 04:39:47;;;;;;;7.80;3.50;;;;;;;;;;5076551;28;20040;-61
2022/09/21 04:42:13;;;;;;;6.13;3.38;;;;;;;;;;5076758;28;20037;-60
2022/09/21 04:44:39;;;;;;;15.98;3.42;;;5.50;99.90;;;;;;5076950;28;20439;-61
2022/09/21 04:47:05;;;;;;;6.63;3.50;;;5.10;99.90;;;;;;5076718;28;20097;-61
2022/09/21 04:49:37;;;;;;;5.13;3.40;;;;;;;;;;5076521;28;20392;-61
2022/09/21 04:52:03;;;;;;;6.13;3.50;;;5.30;99.90;;;;;;5065711;28;20045;-57
2022/09/21 04:54:29;;;;;;;4.80;3.55;;;;;;;;;;5067620;28;20400;-56
2022/09/21 04:56:55;;;;;;;10.13;3.20;;;5.50;99.90;;;;;;5074964;28;20113;-57
2022/09/21 04:59:22;;;;;;;7.40;3.30;;;5.20;99.90;;;;;;5074725;28;20063;-56
2022/09/21 05:01:47;;;;;;;5.57;3.38;;;5.20;99.90;;;;;;5074628;28;20492;-57
2022/09/21 05:04:13;;;;;;;6.45;3.20;;;5.20;99.90;;;;;;5075128;28;20036;-57
2022/09/21 05:06:39;;;;;;;6.38;3.60;;;;;;;;;;5074831;28;20036;-60
2022/09/21 05:11:50;;;;;;;7.80;4.10;;;5.20;99.90;;;;;;5075256;28;20097;-60
2022/09/21 05:14:16;;;;;;;6.95;3.55;;;;;;;;;;5076045;28;20041;-60
2022/09/21 05:16:42;;;;;;;6.78;3.50;;;5.30;99.90;;;;;;5076000;28;20041;-64
2022/09/21 05:19:08;;;;;;;10.50;3.90;;;;;;;;;;5074179;28;20044;-62
2022/09/21 05:21:35;;;;;;;7.72;3.78;;;5.10;99.90;;;;;;5072582;28;20044;-62
2022/09/21 05:24:01;;;;;;;8.10;3.80;;;;;;;;;;5073503;28;20615;-63
2022/09/21 05:26:28;;;;;;;6.75;3.88;;;5.20;99.90;;;;;;5073991;28;20078;-62
2022/09/21 05:28:56;;;;;;;6.72;3.65;;;5.20;99.90;;;;;;5073747;28;20044;-58
2022/09/21 05:31:42;;;;;;;6.70;3.88;;;5.30;99.90;;;;;;5073108;28;20075;-57
2022/09/21 05:34:18;;;;;;;6.78;3.88;;;5.30;99.90;;;;;;5074986;28;20122;-57
2022/09/21 05:36:48;;;;;;;9.65;4.00;;;;;;;;;;5075611;28;20146;-57
2022/09/21 05:39:14;;;;;;;8.60;3.53;;;5.30;99.90;;;;;;5075637;28;20081;-57
2022/09/21 05:41:40;;;;;;;4.63;3.30;;;;;;;;;;5075758;28;20132;-57
2022/09/21 05:44:13;;;;;;;9.57;3.47;;;7.40;99.90;;;;;;5075469;28;20040;-57
2022/09/21 05:46:48;;;;;;;6.07;3.13;;;5.50;99.90;;;;;;5075881;28;20040;-57
2022/09/21 05:49:36;;;;;;;5.45;3.63;;;5.30;99.90;;;;;;5075592;28;20032;-61
2022/09/21 05:52:44;;;;;;;6.47;3.60;;;5.30;99.90;;;;;;5075325;28;20084;-62
2022/09/21 05:55:10;;;;;;;6.13;3.85;;;5.60;99.90;;;;;;5074814;28;20110;-62
2022/09/21 05:58:34;;;;;;;5.60;3.53;;;5.90;99.90;;;;;;5075391;28;20036;-62
2022/09/21 06:01:26;;;;;;;9.10;3.70;;;6.10;99.90;;;;;;5032899;28;20057;-63
2022/09/21 06:03:55;;;;;;;5.57;3.67;;;6.50;99.90;;;;;;5016445;28;20548;-63
2022/09/21 06:06:22;;;;;;;5.43;3.25;;;7.20;99.90;;;;;;5032234;28;20562;-63
2022/09/21 06:08:49;;;;;;;5.13;3.20;;;8.40;99.90;;;;;;5032974;28;20073;-63
2022/09/21 06:11:18;;;;;;;4.72;3.17;;;10.40;99.90;;;;;;5033110;28;20049;-63
2022/09/21 06:13:44;;;;;;;5.25;2.67;;;10.90;99.90;;;;;;5032662;28;20129;-63
2022/09/21 06:16:10;;;;;;;4.68;2.60;;;;;;;;;;5032911;28;20045;-63
2022/09/21 06:18:43;;;;;;;7.40;2.75;;;12.30;99.90;;;;;;5032768;28;20448;-61
2022/09/21 06:21:09;;;;;;;4.88;2.65;;;13.20;99.90;;;;;;5032760;28;20045;-60
2022/09/21 06:23:36;;;;;;;7.00;2.60;;;14.20;99.90;;;;;;5032764;28;20406;-61
2022/09/21 06:26:04;;;;;;;6.70;2.70;;;14.70;99.90;;;;;;5032511;28;20034;-63
2022/09/21 06:28:32;;;;;;;3.28;2.42;;;15.50;99.90;;;;;;5031934;28;20057;-64
2022/09/21 06:30:58;;;;;;;5.63;2.70;;;15.80;99.90;;;;;;5032492;28;20119;-63
2022/09/21 06:33:26;;;;;;;10.52;2.53;;;15.60;99.90;;;;;;5032442;28;20049;-64
2022/09/21 06:35:56;;;;;;;3.17;2.40;;;14.60;99.90;;;;;;5041468;28;20057;-64
2022/09/21 06:38:23;;;;;;;2.60;2.10;;;14.00;99.90;;;;;;5074557;28;20090;-64
2022/09/21 06:40:53;;;;;;;3.45;2.22;;;13.30;99.90;;;;;;5074166;28;20119;-63
2022/09/21 06:43:18;;;;;;;2.60;1.90;;;12.80;99.90;;;;;;5074207;28;20542;-64
2022/09/21 06:46:03;;;;;;;3.47;2.00;;;12.50;99.90;;;;;;5074181;28;20048;-63
2022/09/21 06:48:31;;;;;;;4.70;2.10;;;11.80;99.90;;;;;;5074292;28;20036;-63
2022/09/21 06:51:02;;;;;;;4.65;2.15;;;11.50;99.90;;;;;;5074350;28;20115;-63
2022/09/21 06:53:30;;;;;;;3.55;1.90;;;11.20;99.90;;;;;;5072891;28;20049;-63
2022/09/21 06:56:08;;;;;;;4.55;2.28;;;10.90;99.90;;;;;;5074344;28;20397;-63
2022/09/21 06:58:36;;;;;;;4.68;2.05;;;10.70;99.90;;;;;;5072186;28;20048;-63
2022/09/21 07:01:12;;;;;;;6.88;2.03;;;10.50;99.90;;;;;;5074104;28;20099;-63
2022/09/21 07:03:42;;;;;;;2.88;2.03;;;10.10;99.90;;;;;;5073780;28;20492;-63
2022/09/21 07:06:10;;;;;;;5.00;2.60;;;10.20;99.90;;;;;;5074117;28;20037;-63
2022/09/21 07:08:38;;;;;;;5.88;2.40;;;10.10;99.90;;;;;;5073930;28;20040;-63
2022/09/21 07:11:05;;;;;;;3.60;2.38;;;9.90;99.90;;;;;;5073574;28;20089;-64
2022/09/21 07:13:31;;;;;;;3.20;2.50;;;;;;;;;;5073390;28;20052;-64
2022/09/21 07:15:56;;;;;;;3.88;2.70;;;10.30;99.90;;;;;;5072441;28;20044;-63
2022/09/21 07:18:22;;;;;;;6.10;2.70;;;11.90;99.90;;;;;;5073598;28;20044;-63
2022/09/21 07:20:50;;;;;;;4.25;2.70;;;;;;;;;;5073548;28;20052;-63
2022/09/21 07:23:19;;;;;;;3.97;2.85;;;10.00;99.90;;;;;;5073456;28;20056;-63
2022/09/21 07:25:48;;;;;;;5.65;3.30;;;10.00;99.90;;;;;;5073392;28;20400;-58
2022/09/21 07:28:15;;;;;;;9.68;5.80;;;;;;;;;;5073472;28;20094;-62
2022/09/21 07:30:42;;;;;;;11.30;6.93;;;;;;;;;;5073296;28;20447;-63
2022/09/21 07:33:08;;;;;;;14.20;7.93;;;10.00;99.90;;;;;;5073305;28;20097;-58
2022/09/21 07:35:35;;;;;;;21.02;8.45;;;;;;;;;;5072993;28;20050;-63
2022/09/21 07:38:05;;;;;;;14.50;7.72;;;10.30;99.90;;;;;;5073272;28;20063;-63
2022/09/21 07:40:34;;;;;;;17.55;8.15;;;11.30;99.90;;;;;;5073342;28;20393;-64
2022/09/21 07:43:03;;;;;;;14.35;7.20;;;10.20;99.90;;;;;;5073278;28;20530;-63
2022/09/21 07:45:30;;;;;;;12.50;7.30;;;10.20;99.90;;;;;;5073289;28;20484;-63
2022/09/21 07:48:03;;;;;;;19.60;7.88;;;10.50;99.90;;;;;;5073446;28;20119;-58
2022/09/21 07:50:35;;;;;;;12.85;6.72;;;10.40;99.90;;;;;;5073129;28;20039;-58
2022/09/21 07:53:02;;;;;;;16.10;6.93;;;10.40;99.90;;;;;;5072562;28;20059;-58
2022/09/21 07:55:29;;;;;;;15.38;6.68;;;10.70;99.90;;;;;;5072187;28;20040;-57
2022/09/21 08:00:44;;;;;;;14.80;7.13;;;10.20;99.90;;;;;;5073233;28;20453;-57
2022/09/21 08:03:11;;;;;;;12.88;6.28;;;10.60;99.90;;;;;;5073210;28;20036;-58
2022/09/21 08:05:40;;;;;;;13.30;6.22;;;;;;;;;;5073316;28;20379;-58
2022/09/21 08:08:07;;;;;;;12.45;5.82;;;;;;;;;;5072467;28;20389;-63
2022/09/21 08:10:38;;;;;;;12.32;6.03;;;13.00;99.90;;;;;;5073249;28;20041;-64
2022/09/21 08:13:04;;;;;;;14.68;5.65;;;14.10;99.90;;;;;;5072348;28;20060;-58
2022/09/21 08:15:33;;;;;;;17.17;5.60;;;15.50;99.90;;;;;;5072614;28;20040;-58
2022/09/21 08:17:59;;;;;;;12.20;5.78;;;16.30;99.90;;;;;;5073332;28;20048;-58
2022/09/21 08:20:25;;;;;;;12.70;5.68;;;;;;;;;;5072126;28;20514;-58
2022/09/21 08:22:55;;;;;;;12.50;5.82;;;17.00;99.90;;;;;;5072303;28;20056;-58
2022/09/21 08:25:22;;;;;;;11.80;5.45;;;;;;;;;;5073069;28;20380;-58
2022/09/21 08:27:56;;;;;;;13.93;5.68;;;17.80;99.90;;;;;;5072895;28;20499;-58
2022/09/21 08:30:26;;;;;;;12.15;5.63;;;18.30;99.90;;;;;;5073146;28;20383;-58
2022/09/21 08:32:55;;;;;;;10.02;4.70;;;18.50;99.90;;;;;;5072639;28;20123;-58
2022/09/21 08:35:21;;;;;;;14.18;4.38;;;18.30;99.90;;;;;;5072516;28;20119;-59
2022/09/21 08:37:46;;;;;;;11.75;4.18;;;18.60;99.90;;;;;;5072834;28;20124;-58
2022/09/21 08:40:15;;;;;;;9.90;4.00;;;;;;;;;;5072830;28;20040;-64
2022/09/21 08:43:03;;;;;;;10.65;4.00;;;19.20;99.90;;;;;;5072886;28;20053;-65
2022/09/21 08:45:36;;;;;;;10.60;3.30;;;19.30;99.90;;;;;;5073019;28;20094;-65
2022/09/21 08:48:13;;;;;;;12.18;3.58;;;19.20;99.90;;;;;;5072730;28;20136;-65
2022/09/21 08:50:46;;;;;;;12.55;4.55;;;19.50;99.90;;;;;;5072510;28;20508;-65
2022/09/21 08:53:13;;;;;;;14.60;4.43;;;19.60;99.90;;;;;;5072576;28;20045;-64
2022/09/21 08:55:41;;;;;;;8.65;3.95;;;19.60;99.90;;;;;;5073063;28;20045;-64
2022/09/21 08:58:26;;;;;;;15.85;4.30;;;19.50;99.90;;;;;;5072316;28;20044;-65
2022/09/21 09:01:17;;;;;;;12.38;4.28;;;19.50;99.90;;;;;;5072810;28;20036;-65
2022/09/21 09:03:57;;;;;;;14.45;4.25;;;19.50;99.90;;;;;;5072487;28;20044;-58
2022/09/21 09:06:48;;;;;;;10.02;3.55;;;19.60;99.90;;;;;;5076141;28;20036;-65
2022/09/21 09:09:48;;;;;;;11.20;3.55;;;20.00;99.90;;;;;;5076308;28;20048;-58
2022/09/21 09:12:33;;;;;;;11.38;3.08;;;20.10;99.90;;;;;;5074723;28;20478;-58
2022/09/21 09:15:04;;;;;;;8.05;2.88;;;20.60;99.90;;;;;;5075979;28;20444;-57
2022/09/21 09:17:42;;;;;;;9.07;2.70;;;20.60;99.90;;;;;;5075977;28;20131;-57
2022/09/21 09:20:42;;;;;;;8.18;2.50;;;20.80;99.90;;;;;;5076095;28;20049;-57
2022/09/21 09:23:27;;;;;;;11.43;2.72;;;20.60;99.90;;;;;;5069874;28;20475;-57
2022/09/21 09:25:58;;;;;;;11.10;2.60;;;20.00;99.90;;;;;;5074640;28;20116;-57
2022/09/21 09:28:36;;;;;;;11.90;2.95;;;21.00;99.90;;;;;;5075626;28;20052;-57
2022/09/21 09:31:15;;;;;;;10.93;2.70;;;20.50;99.90;;;;;;5073862;28;20520;-57
2022/09/21 09:33:52;;;;;;;10.07;2.97;;;20.00;99.90;;;;;;5074786;28;20400;-57
2022/09/21 09:36:18;;;;;;;9.05;2.50;;;19.10;99.90;;;;;;5075724;28;20392;-57
2022/09/21 09:39:31;;;;;;;10.52;2.67;;;19.40;99.90;;;;;;5075790;28;20427;-56
2022/09/21 09:42:06;;;;;;;9.68;2.45;;;19.50;99.90;;;;;;5075526;28;20045;-63
2022/09/21 09:44:57;;;;;;;8.23;3.00;;;19.30;99.90;;;;;;5075678;28;20032;-63
2022/09/21 09:47:55;;;;;;;15.00;3.70;;;19.40;99.90;;;;;;5074637;28;20041;-57
2022/09/21 09:50:31;;;;;;;9.95;3.28;;;19.00;99.90;;;;;;5075735;28;20037;-56
2022/09/21 09:53:09;;;;;;;8.45;2.35;;;18.90;99.90;;;;;;5075638;28;20075;-57
2022/09/21 09:55:42;;;;;;;8.38;3.13;;;18.80;99.90;;;;;;5075207;28;20101;-57
2022/09/21 09:58:38;;;;;;;10.88;3.17;;;18.70;99.90;;;;;;5075386;28;20442;-56
2022/09/21 10:01:05;;;;;;;13.65;2.92;;;18.90;99.90;;;;;;5075167;28;20044;-56
2022/09/21 10:03:31;;;;;;;13.43;2.63;;;;;;;;;;5075282;28;20102;-63
2022/09/21 10:05:56;;;;;;;5.82;2.28;;;18.70;99.90;;;;;;5075235;28;20064;-63
2022/09/21 10:08:27;;;;;;;7.68;2.78;;;18.60;99.90;;;;;;5075052;28;20032;-64
2022/09/21 10:10:54;;;;;;;7.68;2.28;;;18.50;99.90;;;;;;5075077;28;20040;-64
2022/09/21 10:13:32;;;;;;;6.05;1.92;;;18.00;99.90;;;;;;5075072;28;20441;-63
2022/09/21 10:16:00;;;;;;;6.00;1.80;;;18.50;99.90;;;;;;5073739;28;20045;-64
2022/09/21 10:18:32;;;;;;;8.05;2.00;;;18.30;99.90;;;;;;5074985;28;20075;-64
2022/09/21 10:21:07;;;;;;;10.00;2.15;;;18.40;99.90;;;;;;5074830;28;20063;-63
2022/09/21 10:23:35;;;;;;;6.72;1.80;;;18.40;99.90;;;;;;5074888;28;20075;-63
2022/09/21 10:26:08;;;;;;;9.43;2.10;;;18.40;99.90;;;;;;5074744;28;20511;-64
2022/09/21 10:28:35;;;;;;;8.88;1.80;;;18.00;99.90;;;;;;5073723;28;20044;-63
2022/09/21 10:31:16;;;;;;;9.43;2.17;;;18.10;99.50;;;;;;5069639;28;20079;-63
2022/09/21 10:34:00;;;;;;;7.35;1.75;;;17.80;99.90;;;;;;5073600;28;20090;-65
2022/09/21 10:36:32;;;;;;;6.47;1.90;;;17.80;99.90;;;;;;5073571;28;20039;-64
2022/09/21 10:39:16;;;;;;;6.43;1.90;;;17.80;99.90;;;;;;5073295;28;20033;-64
2022/09/21 10:41:51;;;;;;;8.55;1.73;;;17.90;99.90;;;;;;5061408;28;20119;-64
2022/09/21 10:44:20;;;;;;;7.97;1.83;;;18.60;99.90;;;;;;5072816;28;20078;-63
2022/09/21 10:46:47;;;;;;;6.32;1.60;;;17.80;99.90;;;;;;5073042;28;20105;-64
2022/09/21 10:49:22;;;;;;;8.05;1.88;;;18.20;99.90;;;;;;5073257;28;20075;-64
2022/09/21 10:51:50;;;;;;;6.20;1.90;;;18.20;99.50;;;;;;5073135;28;20074;-64
2022/09/21 10:54:20;;;;;;;6.43;1.90;;;18.30;99.50;;;;;;5073415;28;20361;-65
2022/09/21 10:57:01;;;;;;;6.57;1.60;;;18.20;99.90;;;;;;5072623;28;20095;-63
2022/09/21 10:59:31;;;;;;;6.43;1.70;;;18.40;99.90;;;;;;5073574;28;20041;-64
2022/09/21 11:02:00;;;;;;;6.80;1.70;;;18.40;99.90;;;;;;5072640;28;20432;-64
2022/09/21 11:04:47;;;;;;;9.35;1.70;;;18.70;99.90;;;;;;5073881;28;20411;-65
2022/09/21 11:07:19;;;;;;;7.40;2.00;;;18.60;99.90;;;;;;5073692;28;20043;-65
2022/09/21 11:10:02;;;;;;;5.93;1.55;;;18.80;99.90;;;;;;5073510;28;20051;-64
2022/09/21 11:12:44;;;;;;;8.75;1.90;;;18.80;99.90;;;;;;5073119;28;20052;-64
2022/09/21 11:15:45;;;;;;;9.05;1.70;;;18.90;97.90;;;;;;5073258;28;20052;-65
2022/09/21 11:18:42;;;;;;;7.93;1.70;;;19.10;99.90;;;;;;5072680;28;20230;-65
2022/09/21 11:21:33;;;;;;;6.03;1.52;;;19.00;99.90;;;;;;5072809;28;20141;-65
2022/09/21 11:24:27;;;;;;;4.97;1.60;;;19.10;99.90;;;;;;5073541;28;20040;-65
2022/09/21 11:26:58;;;;;;;5.88;1.52;;;19.40;96.80;;;;;;5073710;28;20111;-65
2022/09/21 11:29:51;;;;;;;9.10;1.48;;;19.40;99.90;;;;;;5072951;28;20457;-65
2022/09/21 11:32:47;;;;;;;10.35;1.90;;;20.10;99.90;;;;;;5073450;28;20116;-64
2022/09/21 11:35:33;;;;;;;6.00;1.60;;;20.00;99.90;;;;;;5073691;28;20049;-65
2022/09/21 11:38:16;;;;;;;7.20;1.60;;;19.80;96.20;;;;;;5073718;28;20068;-65
2022/09/21 11:41:07;;;;;;;8.23;2.03;;;19.90;94.40;;;;;;5073193;28;20124;-65
2022/09/21 11:44:04;;;;;;;4.88;1.55;;;20.10;94.50;;;;;;5073197;28;20049;-66
2022/09/21 11:47:02;;;;;;;4.88;1.38;;;20.10;97.80;;;;;;5070082;28;20041;-65
2022/09/21 11:50:09;;;;;;;4.85;1.35;;;20.20;92.10;;;;;;5072084;28;20519;-66
2022/09/21 11:52:52;;;;;;;8.38;1.70;;;20.00;97.10;;;;;;5053559;28;20076;-66
2022/09/21 11:55:31;;;;;;;7.05;1.90;;;19.80;97.70;;;;;;5073015;28;20040;-66
2022/09/21 11:58:29;;;;;;;8.05;1.90;;;19.60;97.50;;;;;;5072539;28;20040;-66
2022/09/21 12:01:04;;;;;;;7.07;1.83;;;19.30;98.50;;;;;;5073217;28;20393;-61
2022/09/21 12:03:54;;;;;;;7.13;1.60;;;19.40;93.30;;;;;;5073156;28;20396;-61
2022/09/21 12:06:36;;;;;;;5.15;1.50;;;19.50;97.80;;;;;;5073014;28;20439;-60
2022/09/21 12:09:45;;;;;;;6.05;1.63;;;18.80;97.30;;;;;;5073236;28;20063;-61
2022/09/21 12:12:31;;;;;;;6.40;1.50;;;20.60;97.10;;;;;;5072813;28;20078;-60
2022/09/21 12:15:12;;;;;;;4.15;1.40;;;19.80;90.60;;;;;;5073247;28;20103;-61
2022/09/21 12:17:38;;;;;;;5.88;1.65;;;19.90;95.50;;;;;;5072858;28;20116;-62
2022/09/21 12:20:25;;;;;;;6.53;1.50;;;20.10;94.80;;;;;;5072844;28;20457;-61
2022/09/21 12:22:58;;;;;;;6.40;1.77;;;20.10;91.50;;;;;;5070229;28;20040;-61
2022/09/21 12:25:37;;;;;;;4.68;1.40;;;20.60;87.10;;;;;;5072997;28;20038;-60
2022/09/21 12:28:12;;;;;;;6.85;1.30;;;20.10;93.40;;;;;;5071545;28;20036;-60
2022/09/21 12:30:46;;;;;;;6.03;1.85;;;20.50;87.70;;;;;;5072685;28;20068;-60
2022/09/21 12:33:20;;;;;;;7.47;1.48;;;20.60;87.20;;;;;;5072852;28;20120;-61
2022/09/21 12:35:52;;;;;;;5.55;1.90;;;20.50;93.30;;;;;;5072579;28;20047;-61
2022/09/21 12:38:21;;;;;;;8.43;1.55;;;20.70;90.70;;;;;;5072089;28;20098;-61
2022/09/21 12:40:55;;;;;;;6.03;1.55;;;20.50;92.20;;;;;;5075671;28;20569;-61
2022/09/21 12:43:39;;;;;;;3.80;1.50;;;20.70;91.70;;;;;;5076989;28;20105;-61
2022/09/21 12:47:07;;;;;;;4.90;1.60;;;20.70;91.40;;;;;;5076072;28;20040;-61
2022/09/21 12:49:40;;;;;;;5.57;1.45;;;20.90;90.60;;;;;;5054698;28;20087;-61
2022/09/21 12:52:07;;;;;;;4.95;1.50;;;20.90;90.60;;;;;;5075547;28;20053;-61
2022/09/21 12:54:36;;;;;;;6.15;1.50;;;;;;;;;;5076438;28;20052;-61
2022/09/21 12:57:23;;;;;;;5.47;1.50;;;20.50;86.60;;;;;;5076445;28;20393;-61
2022/09/21 13:00:03;;;;;;;5.95;1.63;;;20.60;88.40;;;;;;5076383;28;20441;-61
2022/09/21 13:02:42;;;;;;;4.97;1.30;;;20.60;87.50;;;;;;5075188;28;20044;-61
2022/09/21 13:05:35;;;;;;;4.38;1.25;;;20.80;87.50;;;;;;5075900;28;20032;-61
2022/09/21 13:08:11;;;;;;;6.03;1.35;;;20.80;84.80;;;;;;5072184;28;20396;-61
2022/09/21 13:10:42;;;;;;;4.43;1.40;;;20.90;82.90;;;;;;5076103;28;20075;-61
2022/09/21 13:13:25;;;;;;;4.15;1.20;;;20.70;84.40;;;;;;5075920;28;20393;-61
2022/09/21 13:15:52;;;;;;;6.78;1.30;;;20.60;83.60;;;;;;5075133;28;20056;-61
2022/09/21 13:18:33;;;;;;;5.43;1.58;;;20.80;83.20;;;;;;5075897;28;20068;-61
2022/09/21 13:21:14;;;;;;;5.68;1.30;;;20.90;83.90;;;;;;5075959;28;20119;-60
2022/09/21 13:23:41;;;;;;;4.88;1.50;;;20.80;82.30;;;;;;5059315;28;20036;-61
2022/09/21 13:26:10;;;;;;;5.10;1.60;;;20.70;82.50;;;;;;5072573;28;20036;-61
2022/09/21 13:29:17;;;;;;;6.82;1.30;;;20.90;80.90;;;;;;5075141;28;20056;-61
2022/09/21 13:32:03;;;;;;;6.25;1.40;;;20.90;81.40;;;;;;5074973;28;20438;-58
2022/09/21 13:34:36;;;;;;;4.65;1.63;;;21.00;81.90;;;;;;5075713;28;20048;-58
2022/09/21 13:37:08;;;;;;;4.32;1.65;;;21.20;82.60;;;;;;5075561;28;20082;-58
2022/09/21 13:39:34;;;;;;;4.07;1.40;;;21.00;82.20;;;;;;5075091;28;20048;-58
2022/09/21 13:42:29;;;;;;;4.82;1.63;;;21.20;82.60;;;;;;5075082;28;20040;-58